Time;durP1;ratioP1;P1;durP2;ratioP2;P2;SDS_P1;SDS_P2;PMS_P1;PMS_P2;Temp;Humidity;BMP_temperature;BMP_pressure;BME280_temperature;BME280_humidity;BME280_pressure;Samples;Min_cycle;Max_cycle;Signal;HPM_P1;HPM_P2
2021/07/19 00:01:20;;;;;;;3.00;2.80;;;22.40;99.90;;;;;;5067942;28;20601;-76
2021/07/19 00:03:51;;;;;;;4.90;2.97;;;22.40;99.90;;;;;;5068058;28;20292;-75
2021/07/19 00:06:18;;;;;;;3.67;2.97;;;22.40;99.90;;;;;;5068197;28;21088;-76
2021/07/19 00:08:45;;;;;;;4.85;3.45;;;22.40;99.90;;;;;;5067805;28;20246;-76
2021/07/19 00:11:14;;;;;;;5.07;3.30;;;22.50;99.90;;;;;;5070073;28;20264;-76
2021/07/19 00:13:40;;;;;;;4.30;3.33;;;22.50;99.90;;;;;;5071504;28;21108;-76
2021/07/19 00:16:07;;;;;;;6.65;3.40;;;22.40;99.90;;;;;;5071953;28;20231;-75
2021/07/19 00:18:37;;;;;;;3.63;3.30;;;22.30;99.90;;;;;;5071758;28;20211;-75
2021/07/19 00:21:04;;;;;;;5.63;3.47;;;22.20;99.90;;;;;;5071813;28;20200;-76
2021/07/19 00:23:31;;;;;;;6.43;3.40;;;22.30;99.90;;;;;;5071210;28;20208;-76
2021/07/19 00:25:59;;;;;;;5.57;3.47;;;22.00;99.90;;;;;;5071429;28;20304;-76
2021/07/19 00:28:28;;;;;;;3.70;3.47;;;22.00;99.90;;;;;;5071547;28;20215;-76
2021/07/19 00:30:57;;;;;;;4.78;3.85;;;22.00;99.90;;;;;;5071242;28;20207;-75
2021/07/19 00:33:26;;;;;;;6.60;3.75;;;22.10;99.90;;;;;;5071275;28;20228;-76
2021/07/19 00:35:54;;;;;;;6.30;3.70;;;21.90;99.90;;;;;;5071050;28;20285;-75
2021/07/19 00:38:20;;;;;;;5.13;4.20;;;21.80;99.90;;;;;;5070932;28;20796;-75
2021/07/19 00:40:47;;;;;;;6.55;4.18;;;21.70;99.90;;;;;;5071081;28;20280;-75
2021/07/19 00:43:14;;;;;;;4.35;4.00;;;21.70;99.90;;;;;;5071251;28;20208;-75
2021/07/19 00:45:42;;;;;;;5.60;4.47;;;21.50;99.90;;;;;;5070942;28;20199;-77
2021/07/19 00:48:08;;;;;;;5.57;4.38;;;21.60;99.90;;;;;;5071214;28;20383;-77
2021/07/19 00:50:37;;;;;;;5.95;4.40;;;21.40;99.90;;;;;;5071069;28;20277;-78
2021/07/19 00:53:07;;;;;;;6.40;4.63;;;21.50;99.90;;;;;;5071393;28;20207;-77
2021/07/19 00:55:37;;;;;;;5.63;5.00;;;21.40;99.90;;;;;;5071066;28;20609;-76
2021/07/19 00:58:06;;;;;;;5.30;4.80;;;21.40;99.90;;;;;;5071031;28;20290;-76
2021/07/19 01:00:34;;;;;;;5.32;4.78;;;21.50;99.90;;;;;;5071132;28;20264;-76
2021/07/19 01:03:05;;;;;;;5.82;4.82;;;21.60;99.90;;;;;;5070776;28;20257;-76
2021/07/19 01:05:32;;;;;;;5.00;4.47;;;21.60;99.90;;;;;;5070802;28;20234;-77
2021/07/19 01:07:59;;;;;;;5.47;4.60;;;21.40;99.90;;;;;;5070621;28;20207;-77
2021/07/19 01:10:26;;;;;;;4.97;4.47;;;21.20;99.90;;;;;;5070253;28;20766;-77
2021/07/19 01:12:56;;;;;;;8.13;4.70;;;21.00;99.90;;;;;;5070364;28;20212;-77
2021/07/19 01:15:24;;;;;;;6.03;4.13;;;21.00;99.90;;;;;;5070506;28;20257;-77
2021/07/19 01:17:51;;;;;;;8.05;4.53;;;20.90;99.90;;;;;;5070585;28;20199;-77
2021/07/19 01:20:23;;;;;;;5.23;4.50;;;20.90;99.90;;;;;;5070199;28;20725;-76
2021/07/19 01:23:25;;;;;;;7.75;4.50;;;21.00;99.90;;;;;;5070128;28;20291;-78
2021/07/19 01:26:23;;;;;;;8.73;4.38;;;21.00;99.90;;;;;;5070327;28;20439;-77
2021/07/19 01:28:52;;;;;;;6.40;4.50;;;20.80;99.90;;;;;;5070555;28;20225;-77
2021/07/19 01:31:24;;;;;;;7.05;4.63;;;20.80;99.90;;;;;;5070415;28;20207;-77
2021/07/19 01:33:55;;;;;;;6.17;4.23;;;20.80;99.90;;;;;;5070206;28;20200;-77
2021/07/19 01:36:26;;;;;;;7.90;4.60;;;20.60;99.90;;;;;;5070289;28;20672;-77
2021/07/19 01:38:53;;;;;;;5.20;4.07;;;20.50;99.90;;;;;;5069873;28;20719;-74
2021/07/19 01:41:21;;;;;;;6.40;3.58;;;20.50;99.90;;;;;;5070110;28;20245;-74
2021/07/19 01:43:53;;;;;;;6.10;4.10;;;20.50;99.90;;;;;;5069956;28;20253;-75
2021/07/19 01:46:21;;;;;;;9.07;4.07;;;20.50;99.90;;;;;;5070005;28;20261;-76
2021/07/19 01:48:48;;;;;;;4.50;3.70;;;20.60;99.90;;;;;;5069750;28;20268;-77
2021/07/19 01:51:15;;;;;;;6.23;3.90;;;20.40;99.90;;;;;;5069807;28;20255;-76
2021/07/19 01:53:42;;;;;;;6.10;3.83;;;20.50;99.90;;;;;;5069974;28;20250;-77
2021/07/19 01:56:09;;;;;;;6.05;3.60;;;20.60;99.90;;;;;;5069464;28;20257;-75
2021/07/19 01:58:37;;;;;;;8.07;3.53;;;20.70;99.90;;;;;;5069845;28;20257;-75
2021/07/19 02:01:06;;;;;;;9.43;3.33;;;20.60;99.90;;;;;;5069507;28;20207;-72
2021/07/19 02:03:33;;;;;;;8.02;3.50;;;20.70;99.90;;;;;;5069218;28;20563;-73
2021/07/19 02:06:00;;;;;;;7.35;3.72;;;20.70;99.90;;;;;;5069177;28;20216;-73
2021/07/19 02:08:28;;;;;;;9.03;4.33;;;20.60;99.90;;;;;;5069003;28;20243;-73
2021/07/19 02:10:56;;;;;;;5.93;4.00;;;20.50;99.90;;;;;;5069282;28;20215;-73
2021/07/19 02:13:25;;;;;;;6.22;4.35;;;20.30;99.90;;;;;;5069058;28;20638;-73
2021/07/19 02:15:55;;;;;;;8.10;3.60;;;20.20;99.90;;;;;;5069239;28;20277;-73
2021/07/19 02:18:26;;;;;;;8.67;4.63;;;20.00;99.90;;;;;;5069353;28;20249;-73
2021/07/19 02:20:55;;;;;;;8.67;4.87;;;19.70;99.90;;;;;;5069286;28;20246;-74
2021/07/19 02:23:23;;;;;;;7.97;4.33;;;19.20;99.90;;;;;;5069304;28;20231;-74
2021/07/19 02:25:51;;;;;;;8.87;4.90;;;19.20;99.90;;;;;;5069028;28;20235;-74
2021/07/19 02:28:18;;;;;;;4.87;4.23;;;19.10;99.90;;;;;;5069043;28;20211;-73
2021/07/19 02:30:46;;;;;;;8.53;4.43;;;19.00;99.90;;;;;;5069019;28;20203;-74
2021/07/19 02:33:19;;;;;;;6.43;4.13;;;19.20;99.90;;;;;;5068021;28;20196;-73
2021/07/19 02:35:48;;;;;;;7.27;4.63;;;19.50;99.90;;;;;;5068009;28;20212;-76
2021/07/19 02:38:16;;;;;;;7.13;4.30;;;19.20;99.90;;;;;;5054847;28;20273;-80
2021/07/19 02:40:45;;;;;;;8.67;4.43;;;19.40;99.90;;;;;;5068672;28;20199;-80
2021/07/19 02:43:12;;;;;;;9.00;4.60;;;19.00;99.90;;;;;;5065798;28;20199;-80
2021/07/19 02:45:41;;;;;;;8.53;3.70;;;18.90;99.90;;;;;;5063672;28;20557;-80
2021/07/19 02:48:11;;;;;;;7.90;3.97;;;18.90;99.90;;;;;;5066657;28;20243;-80
2021/07/19 02:50:39;;;;;;;7.10;4.10;;;19.10;99.90;;;;;;5066270;28;20223;-80
2021/07/19 02:53:09;;;;;;;6.33;3.63;;;18.70;99.90;;;;;;5065789;28;20196;-80
2021/07/19 02:55:37;;;;;;;11.27;4.30;;;18.60;99.90;;;;;;5066361;28;20284;-77
2021/07/19 02:58:06;;;;;;;5.30;3.47;;;18.40;99.90;;;;;;5066085;28;20207;-78
2021/07/19 03:00:34;;;;;;;9.13;3.80;;;18.40;99.90;;;;;;5065607;28;20238;-78
2021/07/19 03:03:02;;;;;;;9.70;3.87;;;18.30;99.90;;;;;;5066187;28;20226;-75
2021/07/19 03:05:33;;;;;;;6.67;3.37;;;18.30;99.90;;;;;;5066184;28;20618;-76
2021/07/19 03:08:01;;;;;;;6.20;3.60;;;18.10;99.90;;;;;;5065460;28;20280;-76
2021/07/19 03:10:30;;;;;;;6.93;3.00;;;18.30;99.90;;;;;;5065936;28;20236;-77
2021/07/19 03:13:02;;;;;;;6.97;3.87;;;18.50;99.90;;;;;;5066183;28;20858;-77
2021/07/19 03:15:32;;;;;;;10.07;4.17;;;18.20;99.90;;;;;;5066231;28;20234;-74
2021/07/19 03:18:03;;;;;;;10.90;3.50;;;18.40;99.90;;;;;;5065563;28;20195;-73
2021/07/19 03:20:30;;;;;;;11.17;3.30;;;18.50;99.90;;;;;;5063320;28;20219;-73
2021/07/19 03:22:58;;;;;;;7.33;3.33;;;18.60;99.90;;;;;;5066181;28;20206;-74
2021/07/19 03:25:27;;;;;;;8.17;3.90;;;18.50;99.90;;;;;;5066341;28;20260;-74
2021/07/19 03:27:56;;;;;;;10.37;3.60;;;18.40;99.90;;;;;;5066115;28;20235;-75
2021/07/19 03:30:25;;;;;;;8.90;3.90;;;18.20;99.90;;;;;;5066372;28;20262;-74
2021/07/19 03:32:52;;;;;;;10.67;3.93;;;18.30;99.90;;;;;;5066329;28;20616;-74
2021/07/19 03:35:22;;;;;;;9.50;3.33;;;18.50;99.90;;;;;;5065875;28;20662;-76
2021/07/19 03:37:52;;;;;;;7.00;3.53;;;18.70;99.90;;;;;;5051962;28;20232;-72
2021/07/19 03:40:20;;;;;;;11.10;3.80;;;18.60;99.90;;;;;;5053568;28;20204;-73
2021/07/19 03:42:48;;;;;;;8.60;4.03;;;18.50;99.90;;;;;;5066213;28;20287;-74
2021/07/19 03:45:17;;;;;;;9.70;3.97;;;18.50;99.90;;;;;;5068588;28;20263;-74
2021/07/19 03:47:53;;;;;;;8.73;4.63;;;18.60;99.90;;;;;;5071542;28;20203;-74
2021/07/19 03:50:25;;;;;;;10.40;4.30;;;18.40;99.90;;;;;;5071170;28;20318;-73
2021/07/19 03:52:57;;;;;;;8.63;4.03;;;18.30;99.90;;;;;;5071680;28;20704;-73
2021/07/19 03:55:24;;;;;;;5.83;3.50;;;18.10;99.90;;;;;;5071910;28;20241;-73
2021/07/19 03:57:51;;;;;;;9.93;4.77;;;18.00;99.90;;;;;;5071949;28;20254;-73
2021/07/19 04:00:21;;;;;;;6.43;3.77;;;17.80;99.90;;;;;;5072030;28;20210;-73
2021/07/19 04:02:51;;;;;;;10.63;4.40;;;17.80;99.90;;;;;;5071954;28;20219;-73
2021/07/19 04:05:20;;;;;;;11.23;3.93;;;17.80;99.90;;;;;;5071870;28;20291;-73
2021/07/19 04:07:52;;;;;;;9.57;4.13;;;18.00;99.90;;;;;;5071668;28;20317;-73
2021/07/19 04:10:22;;;;;;;7.33;3.83;;;17.90;99.90;;;;;;5071500;28;20288;-73
2021/07/19 04:12:51;;;;;;;10.33;3.50;;;17.90;99.90;;;;;;5071527;28;20294;-73
2021/07/19 04:15:19;;;;;;;11.07;4.07;;;18.10;99.90;;;;;;5071578;28;20207;-73
2021/07/19 04:17:54;;;;;;;9.60;3.70;;;17.80;99.90;;;;;;5071315;28;20207;-73
2021/07/19 04:20:22;;;;;;;7.70;3.40;;;17.70;99.90;;;;;;5071477;28;20195;-73
2021/07/19 04:22:49;;;;;;;14.33;3.93;;;17.70;99.90;;;;;;5071420;28;20276;-73
2021/07/19 04:25:27;;;;;;;8.47;3.10;;;17.60;99.90;;;;;;5071455;28;20224;-73
2021/07/19 04:27:57;;;;;;;6.77;3.20;;;17.70;99.90;;;;;;5071149;28;20616;-73
2021/07/19 04:30:35;;;;;;;8.30;3.70;;;17.70;99.90;;;;;;5071373;28;20257;-73
2021/07/19 04:33:08;;;;;;;12.20;4.20;;;17.60;99.90;;;;;;5070601;28;20187;-73
2021/07/19 04:35:46;;;;;;;9.93;3.33;;;17.80;99.90;;;;;;5071065;28;20283;-73
2021/07/19 04:38:15;;;;;;;5.97;3.70;;;17.90;99.90;;;;;;5071258;28;20199;-73
2021/07/19 04:40:46;;;;;;;8.93;4.13;;;18.20;99.90;;;;;;5071153;28;20219;-73
2021/07/19 04:43:15;;;;;;;8.80;4.07;;;18.20;99.90;;;;;;5070831;28;20646;-73
2021/07/19 04:45:43;;;;;;;12.53;4.20;;;18.40;99.90;;;;;;5071189;28;20286;-73
2021/07/19 04:48:09;;;;;;;8.60;3.57;;;18.50;99.90;;;;;;5070941;28;20207;-73
2021/07/19 04:50:37;;;;;;;9.77;4.33;;;18.20;99.90;;;;;;5070845;28;20259;-73
2021/07/19 04:53:06;;;;;;;15.20;3.97;;;18.30;99.90;;;;;;5070869;28;20218;-73
2021/07/19 04:55:34;;;;;;;9.17;3.90;;;18.30;99.90;;;;;;5070760;28;20230;-73
2021/07/19 04:58:03;;;;;;;10.37;3.53;;;18.50;99.90;;;;;;5069590;28;20649;-73
2021/07/19 05:00:32;;;;;;;8.33;4.40;;;18.50;99.90;;;;;;5071034;28;20211;-73
2021/07/19 05:03:04;;;;;;;12.87;5.03;;;18.20;99.90;;;;;;5070681;28;20215;-73
2021/07/19 05:05:34;;;;;;;6.87;3.67;;;18.20;99.90;;;;;;5070739;28;20188;-73
2021/07/19 05:08:05;;;;;;;8.13;3.97;;;18.10;99.90;;;;;;5070609;28;20202;-73
2021/07/19 05:10:32;;;;;;;11.87;4.23;;;18.00;99.90;;;;;;5070464;28;20218;-73
2021/07/19 05:12:59;;;;;;;8.80;4.03;;;18.00;99.90;;;;;;5070694;28;20216;-73
2021/07/19 05:15:26;;;;;;;7.63;3.97;;;18.10;99.90;;;;;;5070590;28;20207;-73
2021/07/19 05:17:53;;;;;;;10.30;4.57;;;18.30;99.90;;;;;;5070235;28;20288;-73
2021/07/19 05:20:24;;;;;;;10.17;4.20;;;18.50;99.90;;;;;;5070560;28;20242;-73
2021/07/19 05:23:03;;;;;;;7.80;4.43;;;18.70;99.90;;;;;;5070435;28;20211;-73
2021/07/19 05:25:34;;;;;;;7.00;4.33;;;18.60;99.90;;;;;;5070036;28;20234;-73
2021/07/19 05:28:06;;;;;;;8.00;4.40;;;18.60;99.90;;;;;;5070284;28;20294;-73
2021/07/19 05:30:35;;;;;;;9.10;5.03;;;18.60;99.90;;;;;;5070548;28;20237;-73
2021/07/19 05:33:04;;;;;;;10.47;4.40;;;18.40;99.90;;;;;;5070096;28;20239;-73
2021/07/19 05:35:32;;;;;;;7.93;4.37;;;18.50;99.90;;;;;;5068951;28;20207;-73
2021/07/19 05:37:59;;;;;;;8.63;4.50;;;18.50;99.90;;;;;;5069834;28;20259;-73
2021/07/19 05:40:26;;;;;;;8.63;4.73;;;18.70;99.90;;;;;;5070070;28;20253;-73
2021/07/19 05:42:53;;;;;;;9.20;4.30;;;18.60;99.90;;;;;;5069345;28;20203;-73
2021/07/19 05:45:20;;;;;;;9.27;4.27;;;18.70;99.90;;;;;;5070042;28;20239;-73
2021/07/19 05:47:53;;;;;;;7.80;4.63;;;18.80;99.90;;;;;;5069970;28;20629;-73
2021/07/19 05:50:19;;;;;;;6.83;4.40;;;18.90;99.90;;;;;;5069658;28;20227;-73
2021/07/19 05:52:47;;;;;;;7.00;4.20;;;18.80;99.90;;;;;;5069682;28;20582;-73
2021/07/19 05:55:15;;;;;;;10.63;5.00;;;19.00;99.90;;;;;;5069439;28;20693;-73
2021/07/19 05:57:48;;;;;;;7.37;4.70;;;19.00;99.90;;;;;;5069190;28;20453;-73
2021/07/19 06:00:24;;;;;;;9.60;4.50;;;18.90;99.90;;;;;;5069274;28;20204;-73
2021/07/19 06:02:54;;;;;;;7.20;4.80;;;18.90;99.90;;;;;;5069273;28;20299;-73
2021/07/19 06:05:26;;;;;;;7.63;4.73;;;18.80;99.90;;;;;;5069376;28;20207;-73
2021/07/19 06:08:02;;;;;;;10.17;4.90;;;19.00;99.90;;;;;;5068939;28;20296;-73
2021/07/19 06:10:39;;;;;;;6.40;4.73;;;19.10;99.90;;;;;;5069090;28;20292;-73
2021/07/19 06:13:06;;;;;;;9.03;5.27;;;19.20;99.90;;;;;;5069480;28;20202;-73
2021/07/19 06:15:39;;;;;;;5.67;4.53;;;19.10;99.90;;;;;;5069457;28;20296;-73
2021/07/19 06:18:14;;;;;;;7.80;4.40;;;19.10;99.90;;;;;;5069186;28;20255;-73
2021/07/19 06:20:40;;;;;;;8.53;4.83;;;19.00;99.90;;;;;;5069282;28;20192;-73
2021/07/19 06:23:20;;;;;;;8.97;5.03;;;19.20;99.90;;;;;;5069081;28;20257;-73
2021/07/19 06:25:54;;;;;;;10.70;5.03;;;18.90;99.90;;;;;;5069161;28;20227;-73
2021/07/19 06:28:26;;;;;;;9.83;5.07;;;18.80;99.90;;;;;;5069188;28;20244;-73
2021/07/19 06:30:53;;;;;;;7.10;4.80;;;18.90;99.90;;;;;;5069177;28;20227;-73
2021/07/19 06:33:20;;;;;;;5.70;4.73;;;19.10;99.90;;;;;;5068855;28;20665;-73
2021/07/19 06:35:47;;;;;;;8.63;5.20;;;19.30;99.90;;;;;;5068866;28;20207;-73
2021/07/19 06:38:15;;;;;;;6.70;4.73;;;19.30;99.90;;;;;;5068912;28;20266;-73
2021/07/19 06:40:48;;;;;;;10.53;5.47;;;19.50;99.90;;;;;;5068714;28;20302;-73
2021/07/19 06:43:20;;;;;;;10.43;5.37;;;19.60;99.90;;;;;;5068889;28;20204;-73
2021/07/19 06:45:49;;;;;;;7.77;5.10;;;19.70;99.90;;;;;;5068904;28;20200;-73
2021/07/19 06:48:22;;;;;;;8.10;5.20;;;19.50;99.90;;;;;;5068521;28;20200;-74
2021/07/19 06:50:59;;;;;;;6.83;5.10;;;19.40;99.80;;;;;;5068813;28;20304;-73
2021/07/19 06:53:27;;;;;;;7.43;5.13;;;19.20;99.80;;;;;;5068462;28;20286;-73
2021/07/19 06:55:56;;;;;;;8.00;5.40;;;19.30;99.90;;;;;;5068692;28;20215;-74
2021/07/19 06:58:24;;;;;;;8.70;5.10;;;19.30;99.90;;;;;;5068501;28;20274;-73
2021/07/19 07:00:51;;;;;;;8.70;5.33;;;19.40;99.90;;;;;;5068995;28;20203;-73
2021/07/19 07:03:19;;;;;;;7.63;5.80;;;19.60;99.90;;;;;;5068604;28;20248;-73
2021/07/19 07:05:46;;;;;;;9.17;5.43;;;19.50;99.70;;;;;;5068447;28;20254;-73
2021/07/19 07:08:12;;;;;;;9.57;5.40;;;19.60;99.90;;;;;;5067841;28;20207;-73
2021/07/19 07:10:40;;;;;;;5.63;5.00;;;19.70;99.90;;;;;;5068600;28;20195;-74
2021/07/19 07:13:09;;;;;;;8.00;5.20;;;19.80;99.90;;;;;;5068503;28;20288;-74
2021/07/19 07:15:44;;;;;;;10.00;5.47;;;19.80;99.50;;;;;;5068376;28;20206;-74
2021/07/19 07:18:11;;;;;;;18.80;6.43;;;20.00;99.80;;;;;;5068253;28;20218;-73
2021/07/19 07:20:42;;;;;;;9.27;5.57;;;20.00;99.50;;;;;;5067732;28;20203;-74
2021/07/19 07:23:09;;;;;;;6.67;5.83;;;20.00;99.20;;;;;;5068288;28;20234;-74
2021/07/19 07:25:36;;;;;;;6.97;5.40;;;20.10;99.30;;;;;;5068308;28;20308;-74
2021/07/19 07:28:04;;;;;;;6.93;5.60;;;20.10;99.50;;;;;;5067907;28;20238;-74
2021/07/19 07:30:31;;;;;;;8.00;5.57;;;20.00;99.60;;;;;;5068497;28;20564;-74
2021/07/19 07:33:00;;;;;;;7.23;5.80;;;20.10;99.80;;;;;;5068202;28;20253;-74
2021/07/19 07:35:33;;;;;;;6.90;5.60;;;20.30;99.90;;;;;;5068125;28;20241;-74
2021/07/19 07:37:59;;;;;;;8.77;5.50;;;20.20;99.50;;;;;;5067785;28;20846;-74
2021/07/19 07:40:26;;;;;;;8.80;5.23;;;20.20;99.60;;;;;;5068348;28;20261;-74
2021/07/19 07:42:52;;;;;;;7.03;4.97;;;20.10;99.30;;;;;;5067910;28;20214;-74
2021/07/19 07:45:20;;;;;;;6.73;5.30;;;19.90;99.50;;;;;;5067769;28;20576;-74
2021/07/19 07:47:47;;;;;;;8.93;6.23;;;19.90;99.90;;;;;;5068203;28;20213;-74
2021/07/19 07:50:14;;;;;;;7.23;5.33;;;20.00;99.70;;;;;;5067808;28;20227;-74
2021/07/19 07:52:41;;;;;;;7.17;5.03;;;20.20;99.50;;;;;;5068294;28;20200;-74
2021/07/19 07:55:09;;;;;;;6.97;5.53;;;19.80;99.40;;;;;;5067871;28;20239;-74
2021/07/19 07:57:35;;;;;;;11.57;5.67;;;19.70;99.90;;;;;;5068089;28;20262;-74
2021/07/19 08:00:05;;;;;;;6.93;5.40;;;19.50;99.90;;;;;;5068117;28;20207;-74
2021/07/19 08:02:33;;;;;;;8.10;5.43;;;19.60;99.90;;;;;;5067973;28;20231;-74
2021/07/19 08:05:00;;;;;;;6.90;5.77;;;19.80;99.90;;;;;;5067814;28;20269;-74
2021/07/19 08:07:26;;;;;;;5.57;5.00;;;20.00;99.80;;;;;;5067790;28;20256;-75
2021/07/19 08:09:53;;;;;;;5.60;4.67;;;19.50;99.60;;;;;;5067715;28;20688;-74
2021/07/19 08:12:20;;;;;;;7.93;5.07;;;19.40;99.90;;;;;;5067894;28;20234;-74
2021/07/19 08:14:46;;;;;;;8.80;5.33;;;19.50;99.90;;;;;;5067744;28;20981;-74
2021/07/19 08:17:13;;;;;;;7.37;5.57;;;19.50;99.90;;;;;;5067432;28;20771;-74
2021/07/19 08:19:47;;;;;;;7.13;5.33;;;19.70;99.90;;;;;;5067745;28;20207;-73
2021/07/19 08:22:14;;;;;;;7.00;5.23;;;19.80;99.90;;;;;;5067729;28;20387;-74
2021/07/19 08:24:41;;;;;;;8.40;5.50;;;20.00;99.90;;;;;;5067574;28;20230;-73
2021/07/19 08:27:08;;;;;;;8.70;4.97;;;20.10;99.90;;;;;;5067786;28;20215;-73
2021/07/19 08:29:38;;;;;;;6.03;5.40;;;19.80;99.90;;;;;;5067918;28;20204;-73
2021/07/19 08:32:06;;;;;;;8.47;5.20;;;19.60;99.90;;;;;;5068530;28;20239;-73
2021/07/19 08:34:33;;;;;;;5.43;4.80;;;19.50;99.90;;;;;;5071291;28;20211;-73
2021/07/19 08:37:03;;;;;;;8.50;5.17;;;19.40;99.90;;;;;;5071030;28;20242;-73
2021/07/19 08:39:39;;;;;;;9.20;5.73;;;19.40;99.90;;;;;;5071570;28;20210;-73
2021/07/19 08:42:06;;;;;;;7.00;5.30;;;19.70;99.90;;;;;;5071101;28;20248;-73
2021/07/19 08:44:37;;;;;;;7.70;4.80;;;19.90;99.90;;;;;;5071253;28;20265;-73
2021/07/19 08:47:09;;;;;;;9.83;5.40;;;20.00;99.90;;;;;;5071031;28;20191;-73
2021/07/19 08:49:37;;;;;;;8.10;4.87;;;20.00;99.80;;;;;;5070614;28;20791;-74
2021/07/19 08:52:13;;;;;;;7.50;4.80;;;20.00;99.80;;;;;;5070866;28;20211;-73
2021/07/19 08:54:42;;;;;;;13.10;5.63;;;20.10;99.40;;;;;;5071167;28;20202;-73
2021/07/19 08:57:12;;;;;;;7.03;4.63;;;20.30;99.90;;;;;;5070676;28;20238;-73
2021/07/19 08:59:40;;;;;;;7.87;4.87;;;20.20;99.10;;;;;;5070960;28;20545;-73
2021/07/19 09:02:16;;;;;;;6.40;4.97;;;19.80;99.00;;;;;;5070563;28;20673;-73
2021/07/19 09:04:43;;;;;;;7.10;4.90;;;19.60;99.10;;;;;;5070123;28;20778;-73
2021/07/19 09:07:12;;;;;;;12.70;4.80;;;19.60;99.20;;;;;;5070509;28;20302;-73
2021/07/19 09:09:42;;;;;;;7.23;5.37;;;19.60;99.10;;;;;;5070359;28;20244;-73
2021/07/19 09:12:09;;;;;;;5.63;4.90;;;19.90;99.60;;;;;;5070627;28;20218;-74
2021/07/19 09:14:54;;;;;;;7.63;5.23;;;19.60;98.20;;;;;;5070404;28;20242;-73
2021/07/19 09:17:23;;;;;;;5.37;4.57;;;19.60;98.20;;;;;;5069942;28;20748;-73
2021/07/19 09:19:50;;;;;;;11.83;5.27;;;19.50;97.90;;;;;;5070306;28;20210;-73
2021/07/19 09:22:31;;;;;;;7.40;4.60;;;19.50;98.90;;;;;;5070567;28;20207;-74
2021/07/19 09:25:10;;;;;;;7.20;5.47;;;19.70;99.00;;;;;;5069481;28;20227;-73
2021/07/19 09:27:41;;;;;;;12.73;9.30;;;19.80;98.90;;;;;;5070226;28;20677;-73
2021/07/19 09:30:23;;;;;;;7.13;4.50;;;19.80;99.00;;;;;;5070330;28;20208;-73
2021/07/19 09:33:04;;;;;;;8.47;5.17;;;19.80;99.20;;;;;;5070614;28;20202;-73
2021/07/19 09:35:32;;;;;;;6.67;4.80;;;19.90;99.30;;;;;;5070136;28;20218;-73
2021/07/19 09:38:05;;;;;;;5.93;4.77;;;20.10;99.40;;;;;;5070420;28;20230;-73
2021/07/19 09:40:42;;;;;;;7.33;4.63;;;20.10;98.80;;;;;;5070320;28;20188;-73
2021/07/19 09:43:32;;;;;;;6.13;4.63;;;20.50;98.80;;;;;;5069502;28;20257;-73
2021/07/19 09:46:00;;;;;;;7.77;4.30;;;20.70;98.70;;;;;;5070036;28;20265;-73
2021/07/19 09:48:38;;;;;;;8.10;4.70;;;20.60;97.80;;;;;;5069714;28;20261;-73
2021/07/19 09:51:09;;;;;;;6.80;4.47;;;20.20;97.90;;;;;;5069882;28;20253;-73
2021/07/19 09:53:45;;;;;;;8.03;4.63;;;20.40;98.40;;;;;;5069932;28;20268;-73
2021/07/19 09:56:13;;;;;;;6.90;4.57;;;20.30;98.60;;;;;;5069672;28;20191;-73
2021/07/19 09:58:42;;;;;;;8.30;4.30;;;20.50;98.20;;;;;;5069733;28;20235;-73
2021/07/19 10:01:08;;;;;;;7.00;4.43;;;20.40;98.40;;;;;;5069579;28;20207;-73
2021/07/19 10:03:35;;;;;;;5.03;4.40;;;20.40;98.20;;;;;;5069764;28;20204;-73
2021/07/19 10:06:06;;;;;;;8.67;4.27;;;20.60;98.40;;;;;;5069508;28;20618;-73
2021/07/19 10:08:33;;;;;;;4.60;4.00;;;20.50;98.50;;;;;;5069405;28;20662;-73
2021/07/19 10:11:01;;;;;;;4.17;3.77;;;20.40;98.30;;;;;;5069436;28;20199;-74
2021/07/19 10:13:35;;;;;;;6.23;4.63;;;20.30;98.80;;;;;;5068930;28;20875;-73
2021/07/19 10:16:11;;;;;;;5.67;4.30;;;20.30;99.00;;;;;;5069404;28;20214;-73
2021/07/19 10:18:39;;;;;;;8.83;4.37;;;20.40;98.60;;;;;;5069402;28;20226;-73
2021/07/19 10:21:20;;;;;;;6.43;4.90;;;20.30;98.60;;;;;;5069005;28;20207;-73
2021/07/19 10:23:47;;;;;;;7.40;4.97;;;20.10;98.60;;;;;;5069410;28;20268;-73
2021/07/19 10:26:23;;;;;;;4.27;3.87;;;20.10;99.30;;;;;;5068982;28;20231;-73
2021/07/19 10:28:50;;;;;;;7.57;4.47;;;20.20;99.90;;;;;;5069309;28;20195;-73
2021/07/19 10:31:22;;;;;;;6.23;4.00;;;20.20;99.90;;;;;;5068964;28;20204;-73
2021/07/19 10:33:52;;;;;;;5.40;4.30;;;20.20;99.90;;;;;;5068881;28;20654;-73
2021/07/19 10:36:32;;;;;;;6.13;4.10;;;20.30;99.90;;;;;;5068786;28;20393;-73
2021/07/19 10:39:07;;;;;;;8.83;4.00;;;20.20;99.90;;;;;;5068530;28;20720;-73
2021/07/19 10:41:38;;;;;;;7.63;3.93;;;20.20;99.90;;;;;;5069136;28;20229;-73
2021/07/19 10:44:09;;;;;;;7.47;4.20;;;20.20;99.90;;;;;;5069029;28;20273;-73
2021/07/19 10:46:38;;;;;;;6.33;4.20;;;20.20;99.90;;;;;;5069192;28;20827;-73
2021/07/19 10:49:07;;;;;;;5.33;3.83;;;20.30;99.90;;;;;;5068862;28;20557;-73
2021/07/19 10:51:40;;;;;;;3.77;3.27;;;20.50;99.90;;;;;;5068628;28;20210;-73
2021/07/19 10:54:18;;;;;;;4.27;3.40;;;20.70;99.90;;;;;;5068189;28;20245;-74
2021/07/19 10:56:47;;;;;;;4.00;3.50;;;20.90;99.90;;;;;;5068595;28;20245;-73
2021/07/19 10:59:27;;;;;;;6.13;4.10;;;20.90;98.90;;;;;;5068626;28;20304;-73
2021/07/19 11:01:55;;;;;;;6.23;3.60;;;20.90;99.20;;;;;;5068359;28;20646;-73
2021/07/19 11:04:23;;;;;;;4.45;3.97;;;21.10;99.30;;;;;;5068532;28;20253;-74
2021/07/19 11:06:56;;;;;;;5.27;4.70;;;21.30;98.60;;;;;;5068304;28;20798;-74
2021/07/19 11:09:33;;;;;;;6.70;5.05;;;21.20;98.60;;;;;;5068078;28;20239;-73
2021/07/19 11:12:08;;;;;;;4.27;3.30;;;21.20;99.00;;;;;;5068562;28;20198;-74
2021/07/19 11:14:43;;;;;;;4.72;3.22;;;21.40;98.30;;;;;;5068105;28;20975;-73
2021/07/19 11:17:10;;;;;;;5.22;3.92;;;21.70;98.80;;;;;;5068399;28;20218;-73
2021/07/19 11:19:39;;;;;;;4.60;3.53;;;21.80;98.50;;;;;;5068222;28;20277;-73
2021/07/19 11:22:07;;;;;;;5.97;3.80;;;22.00;98.40;;;;;;5068351;28;20260;-74
2021/07/19 11:24:41;;;;;;;7.53;3.75;;;21.70;98.00;;;;;;5067976;28;20259;-74
2021/07/19 11:27:10;;;;;;;5.57;4.05;;;21.80;98.20;;;;;;5067853;28;20191;-74
2021/07/19 11:29:38;;;;;;;5.37;3.80;;;21.80;98.60;;;;;;5068080;28;20199;-73
2021/07/19 11:32:11;;;;;;;4.20;3.80;;;21.30;98.30;;;;;;5068303;28;20253;-73
2021/07/19 11:34:38;;;;;;;5.13;4.40;;;21.00;98.90;;;;;;5068145;28;20196;-73
2021/07/19 11:37:04;;;;;;;3.80;3.50;;;20.80;99.40;;;;;;5068364;28;20211;-73
2021/07/19 11:39:43;;;;;;;5.53;3.93;;;21.00;99.20;;;;;;5068095;28;20231;-73
2021/07/19 11:42:12;;;;;;;4.60;4.10;;;20.80;98.80;;;;;;5068210;28;20227;-73
2021/07/19 11:44:39;;;;;;;4.87;3.80;;;21.10;99.00;;;;;;5067764;28;20203;-73
2021/07/19 11:47:06;;;;;;;7.20;4.03;;;21.30;99.10;;;;;;5068225;28;20223;-74
2021/07/19 11:49:35;;;;;;;5.77;3.97;;;21.50;98.90;;;;;;5067851;28;20243;-73
2021/07/19 11:52:03;;;;;;;4.40;3.67;;;21.60;98.80;;;;;;5067996;28;20579;-73
2021/07/19 11:54:31;;;;;;;4.70;4.05;;;21.60;98.50;;;;;;5068122;28;20233;-74
2021/07/19 11:56:57;;;;;;;4.15;3.45;;;21.60;97.60;;;;;;5068234;28;20203;-73
2021/07/19 11:59:27;;;;;;;7.35;3.63;;;21.60;97.50;;;;;;5067901;28;20285;-73
2021/07/19 12:01:58;;;;;;;5.07;3.47;;;21.60;97.60;;;;;;5068155;28;20211;-74
2021/07/19 12:04:36;;;;;;;8.13;3.60;;;21.60;97.80;;;;;;5067868;28;20286;-73
2021/07/19 12:07:03;;;;;;;5.43;3.50;;;21.60;97.90;;;;;;5070600;28;20562;-74
2021/07/19 12:09:30;;;;;;;4.72;3.80;;;21.60;97.80;;;;;;5071294;28;20239;-73
2021/07/19 12:11:58;;;;;;;7.50;3.83;;;21.60;97.70;;;;;;5071504;28;20290;-74
2021/07/19 12:14:26;;;;;;;5.38;3.80;;;21.70;98.00;;;;;;5071580;28;20223;-74
2021/07/19 12:16:53;;;;;;;4.40;3.80;;;21.70;97.70;;;;;;5071633;28;20222;-74
2021/07/19 12:19:21;;;;;;;4.77;3.30;;;21.60;97.40;;;;;;5071308;28;20227;-74
2021/07/19 12:21:51;;;;;;;5.57;4.10;;;21.20;97.20;;;;;;5071746;28;20211;-74
2021/07/19 12:24:19;;;;;;;4.27;3.87;;;21.00;97.50;;;;;;5071214;28;20683;-73
2021/07/19 12:26:48;;;;;;;3.77;3.40;;;21.10;97.90;;;;;;5071601;28;20628;-74
2021/07/19 12:29:17;;;;;;;3.83;3.53;;;21.10;97.60;;;;;;5071094;28;20677;-73
2021/07/19 12:31:52;;;;;;;5.00;3.53;;;21.10;97.50;;;;;;5071547;28;20276;-73
2021/07/19 12:34:20;;;;;;;4.70;3.55;;;21.20;97.70;;;;;;5070963;28;20657;-73
2021/07/19 12:36:51;;;;;;;5.70;3.80;;;21.30;97.20;;;;;;5071215;28;20239;-73
2021/07/19 12:39:20;;;;;;;6.77;3.60;;;21.20;97.20;;;;;;5071051;28;20581;-73
2021/07/19 12:41:48;;;;;;;5.17;3.47;;;21.00;97.30;;;;;;5071253;28;20262;-73
2021/07/19 12:44:15;;;;;;;5.13;4.00;;;21.10;97.70;;;;;;5071203;28;20203;-74
2021/07/19 12:46:44;;;;;;;4.63;3.43;;;21.30;97.40;;;;;;5071157;28;20249;-74
2021/07/19 12:49:12;;;;;;;7.97;3.60;;;21.30;97.20;;;;;;5070839;28;20263;-74
2021/07/19 12:51:41;;;;;;;6.72;4.22;;;21.50;97.00;;;;;;5070902;28;20207;-73
2021/07/19 12:54:10;;;;;;;5.43;3.92;;;21.50;96.40;;;;;;5070757;28;20215;-76
2021/07/19 12:56:40;;;;;;;4.28;3.65;;;21.60;96.70;;;;;;5070369;28;20669;-75
2021/07/19 12:59:10;;;;;;;4.53;3.80;;;21.70;97.10;;;;;;5070305;28;20673;-74